Time;durP1;ratioP1;P1;durP2;ratioP2;P2;SDS_P1;SDS_P2;PMS_P1;PMS_P2;Temp;Humidity;BMP_temperature;BMP_pressure;BME280_temperature;BME280_humidity;BME280_pressure;Samples;Min_cycle;Max_cycle;Signal;HPM_P1;HPM_P2
2021/06/12 00:00:10;;;;;;;0.75;0.75;;;;;;;12.29;100.00;100243.36;1693193;84;21006;-91
2021/06/12 00:02:37;;;;;;;2.75;1.17;;;;;;;12.26;100.00;100242.56;1695777;84;21001;-92
2021/06/12 00:05:06;;;;;;;1.15;1.02;;;;;;;12.18;100.00;100244.60;1697939;84;21067;-90
2021/06/12 00:07:33;;;;;;;3.22;0.93;;;;;;;12.13;100.00;100248.78;1700493;84;21429;-91
2021/06/12 00:10:04;;;;;;;1.02;0.93;;;;;;;12.10;100.00;100235.12;1700634;83;21038;-91
2021/06/12 00:12:31;;;;;;;1.55;0.82;;;;;;;12.11;100.00;100238.67;1684389;84;21011;-90
2021/06/12 00:14:57;;;;;;;1.27;0.98;;;;;;;12.11;100.00;100244.14;1700417;84;21424;-90
2021/06/12 00:17:23;;;;;;;1.80;1.40;;;;;;;12.09;100.00;100244.99;1700422;84;21027;-91
2021/06/12 00:19:50;;;;;;;3.02;1.47;;;;;;;12.07;100.00;100247.20;1700531;83;21027;-91
2021/06/12 00:22:16;;;;;;;3.27;1.10;;;;;;;12.04;100.00;100241.76;1700516;84;21549;-91
2021/06/12 00:24:43;;;;;;;1.67;1.37;;;;;;;12.04;100.00;100241.76;1700483;84;21011;-91
2021/06/12 00:27:10;;;;;;;3.42;1.90;;;;;;;12.07;100.00;100243.09;1701597;83;21037;-91
2021/06/12 00:29:37;;;;;;;0.70;0.70;;;;;;;12.08;100.00;100242.00;1701088;83;21035;-92
2021/06/12 00:32:04;;;;;;;0.65;0.50;;;;;;;12.09;100.00;100240.88;1700412;83;21055;-91
2021/06/12 00:34:31;;;;;;;2.10;1.22;;;;;;;12.10;100.00;100246.64;1700274;83;21055;-91
2021/06/12 00:36:58;;;;;;;6.10;1.72;;;;;;;12.10;100.00;100243.90;1700555;84;21074;-93
2021/06/12 00:39:25;;;;;;;2.17;1.22;;;;;;;12.12;100.00;100246.60;1700444;84;21012;-91
2021/06/12 00:41:51;;;;;;;2.52;1.50;;;;;;;12.13;100.00;100246.04;1700633;83;21051;-90
2021/06/12 00:44:18;;;;;;;2.60;1.65;;;;;;;12.11;100.00;100245.52;1678027;84;21003;-90
2021/06/12 00:46:45;;;;;;;1.95;1.15;;;;;;;12.09;100.00;100249.09;1700319;83;21003;-91
2021/06/12 00:49:11;;;;;;;1.27;1.15;;;;;;;12.07;100.00;100245.84;1700716;83;21004;-91
2021/06/12 00:51:38;;;;;;;1.57;1.00;;;;;;;12.07;100.00;100248.05;1700341;83;21067;-92
2021/06/12 00:54:04;;;;;;;1.67;1.20;;;;;;;12.08;100.00;100250.22;1700382;83;21008;-91
2021/06/12 00:56:31;;;;;;;1.87;1.05;;;;;;;12.07;100.00;100248.58;1700332;83;21055;-90
2021/06/12 00:58:58;;;;;;;1.17;1.07;;;;;;;12.04;100.00;100243.97;1700313;84;21015;-91
2021/06/12 01:01:26;;;;;;;1.62;0.88;;;;;;;12.02;100.00;100243.45;1700997;84;21055;-91
2021/06/12 01:03:52;;;;;;;1.17;1.07;;;;;;;12.03;100.00;100252.47;1700853;84;21019;-91
2021/06/12 01:06:22;;;;;;;2.10;1.57;;;;;;;12.01;100.00;100243.16;1700519;84;21059;-91
2021/06/12 01:08:49;;;;;;;2.87;1.25;;;;;;;12.00;100.00;100245.66;1700550;84;21031;-92
2021/06/12 01:11:15;;;;;;;2.62;1.52;;;;;;;11.98;100.00;100247.87;1700279;84;21016;-91
2021/06/12 01:14:07;;;;;;;3.37;1.75;;;;;;;11.98;100.00;100243.76;1700544;84;21031;-91
2021/06/12 01:16:44;;;;;;;3.08;1.35;;;;;;;11.97;100.00;100239.41;1701144;83;21000;-91
2021/06/12 01:19:54;;;;;;;1.72;1.15;;;;;;;11.98;100.00;100245.13;1696022;84;21455;-91
2021/06/12 01:22:27;;;;;;;1.40;0.90;;;;;;;11.97;100.00;100241.34;1695728;84;21025;-91
2021/06/12 01:25:06;;;;;;;1.77;1.12;;;;;;;11.95;100.00;100244.36;1696869;84;21972;-91
2021/06/12 01:28:11;;;;;;;0.90;0.90;;;;;;;11.93;100.00;100243.83;1698278;84;21485;-91
2021/06/12 01:30:38;;;;;;;;;;;;;;;11.92;100.00;100242.73;1703100;84;21098;-91
2021/06/12 01:33:08;;;;;;;1.00;0.60;;;;;;;11.89;100.00;100241.41;1684839;84;20177;-91
2021/06/12 01:35:40;;;;;;;1.05;0.95;;;;;;;11.87;100.00;100242.27;1700603;83;21047;-91
2021/06/12 01:38:09;;;;;;;;;;;;;;;11.87;100.00;100240.07;1703305;84;21020;-90
2021/06/12 01:40:38;;;;;;;1.20;1.10;;;;;;;11.84;100.00;100245.02;1700205;83;20148;-90
2021/06/12 01:43:05;;;;;;;1.80;1.35;;;;;;;11.83;100.00;100250.77;1701163;83;21011;-91
2021/06/12 01:45:32;;;;;;;1.45;1.35;;;;;;;11.81;100.00;100248.88;1665991;85;21041;-91
2021/06/12 01:47:59;;;;;;;1.12;0.90;;;;;;;11.80;100.00;100244.52;1641173;86;21121;-91
2021/06/12 01:50:26;;;;;;;1.50;1.40;;;;;;;11.81;100.00;100247.51;1663667;85;21078;-90
2021/06/12 01:52:55;;;;;;;1.57;1.47;;;;;;;11.80;100.00;100245.89;1666035;86;21029;-91
2021/06/12 01:55:28;;;;;;;3.10;1.30;;;;;;;11.82;100.00;100247.78;1698670;83;21011;-91
2021/06/12 01:57:54;;;;;;;1.47;1.22;;;;;;;11.82;100.00;100249.97;1703981;84;21059;-90
2021/06/12 02:00:21;;;;;;;2.90;1.60;;;;;;;11.84;100.00;100242.81;1703046;84;21048;-92
2021/06/12 02:02:48;;;;;;;1.02;0.88;;;;;;;11.86;100.00;100243.89;1703142;83;21519;-91
2021/06/12 02:05:22;;;;;;;1.95;1.55;;;;;;;11.88;100.00;100240.34;1683157;84;20988;-91
2021/06/12 02:07:50;;;;;;;2.05;1.70;;;;;;;11.90;100.00;100240.87;1672242;84;21596;-91
2021/06/12 02:10:22;;;;;;;2.22;1.40;;;;;;;11.91;100.00;100245.23;1703402;84;21031;-91
2021/06/12 02:12:50;;;;;;;1.45;1.10;;;;;;;11.91;100.00;100237.83;1704077;83;21433;-90
2021/06/12 02:15:17;;;;;;;2.27;1.45;;;;;;;11.95;100.00;100239.44;1703239;84;21421;-91
2021/06/12 02:17:45;;;;;;;2.25;1.92;;;;;;;11.96;100.00;100243.23;1703398;84;21039;-91
2021/06/12 02:20:14;;;;;;;1.35;1.17;;;;;;;11.99;100.00;100242.67;1703258;84;21011;-90
2021/06/12 02:22:43;;;;;;;2.17;1.37;;;;;;;11.99;100.00;100245.41;1703300;83;21023;-91
2021/06/12 02:25:11;;;;;;;1.75;1.37;;;;;;;12.02;100.00;100246.74;1704034;84;21038;-92
2021/06/12 02:27:39;;;;;;;1.70;1.52;;;;;;;12.03;100.00;100242.32;1703329;84;21055;-90
2021/06/12 02:30:07;;;;;;;1.35;1.20;;;;;;;12.07;100.00;100246.67;1683155;84;21052;-91
2021/06/12 02:32:39;;;;;;;2.45;2.12;;;;;;;12.07;100.00;100245.84;1708881;83;20972;-91
2021/06/12 02:35:07;;;;;;;1.93;1.77;;;;;;;12.05;100.00;100252.44;1723878;83;21371;-90
2021/06/12 02:37:33;;;;;;;2.08;1.70;;;;;;;12.04;100.00;100249.45;1723360;83;21040;-91
2021/06/12 02:40:00;;;;;;;2.65;1.50;;;;;;;12.06;100.00;100253.24;1720386;83;21023;-90
2021/06/12 02:42:26;;;;;;;2.20;0.98;;;;;;;12.10;100.00;100256.22;1704163;84;21522;-90
2021/06/12 02:44:53;;;;;;;2.95;1.57;;;;;;;12.13;100.00;100254.26;1703257;84;21051;-91
2021/06/12 02:47:20;;;;;;;1.95;1.25;;;;;;;12.15;100.00;100248.75;1703339;84;21015;-91
2021/06/12 02:49:46;;;;;;;1.72;1.30;;;;;;;12.17;100.00;100256.68;1666555;83;21012;-91
2021/06/12 02:52:18;;;;;;;2.37;1.30;;;;;;;12.16;100.00;100257.77;1671814;83;20990;-91
2021/06/12 02:54:46;;;;;;;3.80;1.75;;;;;;;12.18;100.00;100256.92;1726572;82;21036;-91
2021/06/12 02:57:13;;;;;;;4.50;2.05;;;;;;;12.19;100.00;100264.02;1696633;83;20969;-91
2021/06/12 02:59:43;;;;;;;3.10;1.55;;;;;;;12.21;100.00;100259.07;1670891;84;21074;-92
2021/06/12 03:02:11;;;;;;;1.42;1.20;;;;;;;12.26;100.00;100263.11;1694211;84;21029;-90
2021/06/12 03:04:38;;;;;;;1.85;1.45;;;;;;;12.35;100.00;100264.64;1682392;85;21025;-91
2021/06/12 03:07:05;;;;;;;2.27;1.55;;;;;;;12.46;100.00;100268.32;1656280;85;21055;-91
2021/06/12 03:09:31;;;;;;;1.45;0.98;;;;;;;12.60;100.00;100263.45;1641786;86;21017;-91
2021/06/12 03:11:58;;;;;;;1.25;1.15;;;;;;;12.74;100.00;100273.93;1674174;84;21020;-91
2021/06/12 03:14:25;;;;;;;2.27;1.80;;;;;;;12.88;100.00;100263.84;1667336;86;21009;-91
2021/06/12 03:16:52;;;;;;;1.55;1.42;;;;;;;13.06;100.00;100266.84;1649097;85;21024;-91
2021/06/12 03:19:18;;;;;;;1.62;1.35;;;;;;;13.24;100.00;100263.78;1643106;86;20993;-91
2021/06/12 03:21:45;;;;;;;1.77;1.15;;;;;;;13.41;100.00;100265.98;1627700;85;21127;-91
2021/06/12 03:24:12;;;;;;;3.12;2.02;;;;;;;13.56;100.00;100272.55;1642259;86;21450;-91
2021/06/12 03:26:38;;;;;;;3.27;2.33;;;;;;;13.71;100.00;100268.13;1674269;84;21005;-92
2021/06/12 03:29:05;;;;;;;2.98;1.75;;;;;;;13.87;100.00;100272.78;1619779;86;21072;-92
2021/06/12 03:31:32;;;;;;;3.85;1.60;;;;;;;14.02;100.00;100274.39;1673887;84;21016;-92
2021/06/12 03:33:59;;;;;;;3.87;1.60;;;;;;;14.18;100.00;100279.00;1667167;86;21053;-92
2021/06/12 03:36:27;;;;;;;1.90;1.52;;;;;;;14.30;100.00;100273.78;1674154;84;21012;-92
2021/06/12 03:38:53;;;;;;;3.50;1.47;;;;;;;14.41;100.00;100275.73;1667491;86;21077;-92
2021/06/12 03:41:20;;;;;;;2.77;2.15;;;;;;;14.51;100.00;100276.88;1674284;84;20997;-90
2021/06/12 03:43:48;;;;;;;2.10;1.30;;;;;;;14.61;100.00;100271.20;1642777;86;21053;-91
2021/06/12 03:46:18;;;;;;;2.42;2.05;;;;;;;14.76;100.00;100271.94;1627181;85;21028;-91
2021/06/12 03:48:48;;;;;;;2.17;1.75;;;;;;;14.88;100.00;100270.81;1667496;86;27560;-91
2021/06/12 03:51:16;;;;;;;2.35;1.60;;;;;;;15.04;100.00;100268.52;1648955;85;21338;-91
2021/06/12 03:53:47;;;;;;;3.40;1.62;;;;;;;15.19;100.00;100267.31;1641732;85;20996;-90
2021/06/12 03:56:21;;;;;;;4.53;1.80;;;;;;;15.35;100.00;100274.03;1674154;84;21060;-92
2021/06/12 03:58:49;;;;;;;2.55;1.98;;;;;;;15.48;100.00;100267.64;1667185;86;21410;-90
2021/06/12 04:01:16;;;;;;;3.35;1.80;;;;;;;15.59;100.00;100270.11;1675800;83;21006;-91
2021/06/12 04:03:44;;;;;;;2.72;1.75;;;;;;;15.71;100.00;100276.44;1667289;86;21005;-90
2021/06/12 04:06:11;;;;;;;2.15;1.35;;;;;;;15.80;100.00;100269.83;1674225;84;20999;-91
2021/06/12 04:08:38;;;;;;;3.00;2.15;;;;;;;15.93;100.00;100279.10;1667280;86;21021;-91
2021/06/12 04:11:06;;;;;;;3.58;1.50;;;;;;;16.06;100.00;100278.73;1674205;84;21314;-91
2021/06/12 04:13:32;;;;;;;2.05;1.67;;;;;;;16.18;100.00;100279.50;1667181;86;21478;-91
2021/06/12 04:15:59;;;;;;;2.30;1.45;;;;;;;16.28;100.00;100270.91;1674313;84;21194;-91
2021/06/12 04:18:25;;;;;;;2.75;1.95;;;;;;;16.41;100.00;100284.31;1667113;86;20998;-90
2021/06/12 04:20:54;;;;;;;1.70;1.60;;;;;;;16.55;100.00;100289.12;1674774;84;21072;-91
2021/06/12 04:23:20;;;;;;;1.67;1.47;;;;;;;16.70;100.00;100279.55;1674665;85;21000;-91
2021/06/12 04:25:47;;;;;;;2.50;1.52;;;;;;;16.83;100.00;100288.25;1667054;84;21028;-91
2021/06/12 04:28:13;;;;;;;3.10;1.62;;;;;;;16.98;100.00;100288.32;1674076;85;20989;-90
2021/06/12 04:30:40;;;;;;;2.37;1.82;;;;;;;17.11;100.00;100293.41;1667074;84;21005;-91
2021/06/12 04:33:06;;;;;;;1.87;1.52;;;;;;;17.22;100.00;100283.66;1648930;85;21559;-92
2021/06/12 04:35:33;;;;;;;3.85;1.65;;;;;;;17.33;100.00;100289.64;1667099;86;21491;-91
2021/06/12 04:38:00;;;;;;;3.60;1.82;;;;;;;17.44;100.00;100280.45;1674325;84;21025;-89
2021/06/12 04:40:29;;;;;;;2.37;1.70;;;;;;;17.53;100.00;100287.57;1668151;86;21037;-92
2021/06/12 04:42:55;;;;;;;3.05;2.08;;;;;;;17.63;100.00;100288.59;1674107;84;21005;-90
2021/06/12 04:45:23;;;;;;;2.10;1.05;;;;;;;17.76;100.00;100294.23;1667136;85;20992;-90
2021/06/12 04:47:50;;;;;;;2.85;1.57;;;;;;;17.91;100.00;100296.46;1673935;84;21022;-90
2021/06/12 04:50:18;;;;;;;2.50;1.60;;;;;;;18.05;100.00;100298.43;1641779;86;21559;-90
2021/06/12 04:52:44;;;;;;;2.52;1.15;;;;;;;18.19;100.00;100301.52;1674481;84;21009;-91
2021/06/12 04:55:12;;;;;;;1.82;1.55;;;;;;;18.34;100.00;100305.08;1666268;86;21005;-90
2021/06/12 04:57:39;;;;;;;1.75;1.17;;;;;;;18.45;100.00;100302.17;1694916;83;21061;-89
2021/06/12 05:00:10;;;;;;;1.40;1.30;;;;;;;18.58;99.09;100304.44;1665297;83;21083;-92
2021/06/12 05:02:38;;;;;;;1.60;1.20;;;;;;;18.73;97.63;100296.67;1687652;84;21079;-90
2021/06/12 05:05:10;;;;;;;2.08;1.07;;;;;;;18.86;96.41;100301.15;1721356;83;21025;-90
2021/06/12 05:07:36;;;;;;;1.52;1.20;;;;;;;18.96;95.66;100295.77;1694534;82;21068;-89
2021/06/12 05:10:06;;;;;;;3.40;1.50;;;;;;;19.08;94.73;100297.20;1692845;84;21801;-90
2021/06/12 05:12:33;;;;;;;1.67;1.25;;;;;;;19.20;93.15;100300.02;1693091;83;21001;-90
2021/06/12 05:15:01;;;;;;;1.07;0.90;;;;;;;19.33;92.80;100302.25;1692992;84;21073;-90
2021/06/12 05:17:29;;;;;;;2.75;1.27;;;;;;;19.61;91.01;100302.45;1696763;83;20972;-90
2021/06/12 05:20:03;;;;;;;1.35;1.25;;;;;;;19.61;91.01;100302.45;1721695;83;21895;-90
2021/06/12 05:22:33;;;;;;;1.60;1.02;;;;;;;19.79;89.54;100307.81;1723153;81;21007;-89
2021/06/12 05:24:59;;;;;;;1.40;1.25;;;;;;;20.03;87.62;100303.67;1722169;83;21528;-91
2021/06/12 05:27:26;;;;;;;2.65;1.22;;;;;;;20.03;87.62;100303.67;1714855;82;21058;-90
2021/06/12 05:29:52;;;;;;;1.42;1.30;;;;;;;20.11;87.15;100305.50;1722037;83;21011;-90
2021/06/12 05:32:19;;;;;;;1.35;1.07;;;;;;;20.23;86.85;100301.09;1714700;83;20998;-90
2021/06/12 05:34:46;;;;;;;2.67;1.15;;;;;;;20.35;86.26;100295.52;1724033;83;21072;-90
2021/06/12 05:37:13;;;;;;;1.47;1.30;;;;;;;20.48;85.19;100292.98;1723929;81;20985;-89
2021/06/12 05:39:39;;;;;;;1.45;1.00;;;;;;;20.63;84.63;100301.77;1724366;82;20993;-90
2021/06/12 05:42:06;;;;;;;2.27;1.45;;;;;;;20.73;82.82;100299.89;1724101;81;21379;-90
2021/06/12 05:44:34;;;;;;;1.17;0.95;;;;;;;20.83;82.51;100304.94;1724317;83;20982;-90
2021/06/12 05:47:01;;;;;;;2.67;1.22;;;;;;;20.88;81.30;100297.75;1694974;83;21655;-91
2021/06/12 05:49:28;;;;;;;1.27;1.17;;;;;;;20.96;80.17;100299.56;1695253;84;39007;-89
2021/06/12 05:51:55;;;;;;;1.42;0.90;;;;;;;21.07;79.70;100303.22;1678491;83;21020;-90
2021/06/12 05:54:21;;;;;;;1.55;1.30;;;;;;;21.16;78.38;100308.05;1706735;82;21068;-90
2021/06/12 05:56:48;;;;;;;1.92;1.15;;;;;;;21.24;79.04;100305.69;1694368;83;21024;-89
2021/06/12 05:59:15;;;;;;;1.98;1.45;;;;;;;21.31;77.36;100300.91;1694681;84;21053;-90
2021/06/12 06:01:41;;;;;;;1.25;1.15;;;;;;;21.41;77.68;100304.03;1694423;83;21000;-91
2021/06/12 06:04:08;;;;;;;0.95;0.70;;;;;;;21.46;78.33;100300.98;1694782;84;21478;-90
2021/06/12 06:06:34;;;;;;;0.90;0.90;;;;;;;21.53;78.01;100303.71;1700511;83;21040;-90
2021/06/12 06:09:02;;;;;;;1.30;1.20;;;;;;;21.64;77.68;100299.25;1724067;83;20949;-90
2021/06/12 06:11:28;;;;;;;1.37;1.00;;;;;;;21.79;76.47;100299.83;1723274;81;21395;-90
2021/06/12 06:13:55;;;;;;;0.98;0.90;;;;;;;21.94;75.28;100299.61;1719716;83;20977;-90
2021/06/12 06:16:22;;;;;;;1.60;1.10;;;;;;;21.95;75.46;100296.23;1694331;83;21532;-91
2021/06/12 06:18:48;;;;;;;2.00;1.17;;;;;;;22.02;75.86;100295.81;1694132;84;20993;-89
2021/06/12 06:21:16;;;;;;;3.25;1.37;;;;;;;22.16;74.69;100298.14;1694206;83;21040;-90
2021/06/12 06:23:43;;;;;;;1.12;1.02;;;;;;;22.27;73.31;100292.26;1694284;84;21430;-91
2021/06/12 06:26:09;;;;;;;1.20;0.88;;;;;;;22.38;73.17;100298.65;1697771;83;21022;-90
2021/06/12 06:28:36;;;;;;;1.47;1.10;;;;;;;22.42;71.72;100286.43;1694382;84;21008;-90
2021/06/12 06:31:03;;;;;;;2.02;1.02;;;;;;;22.48;70.60;100288.36;1694298;83;21016;-90
2021/06/12 06:33:30;;;;;;;1.37;0.85;;;;;;;22.53;70.97;100289.47;1694181;84;21005;-90
2021/06/12 06:35:56;;;;;;;2.00;1.35;;;;;;;22.59;70.49;100296.94;1666493;83;21238;-90
2021/06/12 06:38:24;;;;;;;1.47;0.90;;;;;;;22.72;71.35;100296.45;1694037;84;21394;-91
2021/06/12 06:40:50;;;;;;;1.95;1.30;;;;;;;22.81;69.63;100297.62;1700584;81;21434;-91
2021/06/12 06:43:17;;;;;;;1.75;0.95;;;;;;;22.83;70.56;100293.09;1719862;83;20989;-90
2021/06/12 06:45:45;;;;;;;1.22;1.12;;;;;;;22.89;69.85;100296.58;1715649;82;20998;-90
2021/06/12 06:48:13;;;;;;;1.57;1.07;;;;;;;22.99;69.13;100298.00;1722285;83;21009;-90
2021/06/12 06:50:40;;;;;;;1.80;0.88;;;;;;;23.08;67.36;100302.78;1720655;82;20986;-90
2021/06/12 06:53:06;;;;;;;0.95;0.78;;;;;;;23.09;66.22;100302.98;1720386;83;21099;-89
2021/06/12 06:55:33;;;;;;;0.93;0.70;;;;;;;23.13;66.09;100300.28;1704228;83;21072;-90
2021/06/12 06:57:59;;;;;;;0.80;0.80;;;;;;;23.24;65.52;100311.03;1720625;82;21009;-90
2021/06/12 07:00:26;;;;;;;1.25;0.78;;;;;;;23.29;64.55;100307.95;1719721;83;21031;-90
2021/06/12 07:02:53;;;;;;;1.67;0.60;;;;;;;23.26;64.21;100313.47;1720787;82;21038;-90
2021/06/12 07:05:20;;;;;;;1.40;0.90;;;;;;;23.26;63.81;100307.89;1702336;83;21029;-90
2021/06/12 07:07:47;;;;;;;1.10;0.80;;;;;;;23.28;63.47;100313.91;1692968;83;21017;-90
2021/06/12 07:10:15;;;;;;;0.90;0.72;;;;;;;23.33;62.50;100309.42;1699593;82;21500;-90
2021/06/12 07:12:42;;;;;;;1.10;1.00;;;;;;;23.37;64.79;100308.91;1691158;83;21017;-91
2021/06/12 07:15:10;;;;;;;0.98;0.70;;;;;;;23.50;64.12;100301.17;1680891;84;21444;-89
2021/06/12 07:17:36;;;;;;;0.75;0.75;;;;;;;23.66;64.14;100302.44;1714035;82;21026;-90
2021/06/12 07:20:05;;;;;;;1.67;1.15;;;;;;;23.72;62.85;100310.73;1719144;83;20911;-89
2021/06/12 07:22:32;;;;;;;1.98;0.82;;;;;;;23.68;62.06;100307.06;1719415;82;21089;-89
2021/06/12 07:25:00;;;;;;;0.68;0.55;;;;;;;23.71;62.63;100306.31;1720887;83;21003;-90
2021/06/12 07:27:27;;;;;;;1.00;0.80;;;;;;;23.76;61.79;100307.42;1720514;81;20991;-90
2021/06/12 07:29:53;;;;;;;0.70;0.70;;;;;;;23.82;61.87;100310.13;1707004;84;21031;-89
2021/06/12 07:32:20;;;;;;;1.37;1.00;;;;;;;23.91;61.17;100307.08;1706763;82;21432;-90
2021/06/12 07:34:46;;;;;;;1.05;0.95;;;;;;;23.92;60.83;100308.70;1715005;83;21002;-90
2021/06/12 07:37:13;;;;;;;2.10;0.95;;;;;;;23.99;60.33;100314.41;1719263;82;21069;-91
2021/06/12 07:39:41;;;;;;;0.82;0.80;;;;;;;24.15;60.71;100307.27;1722541;83;21034;-91
2021/06/12 07:42:08;;;;;;;1.62;0.93;;;;;;;24.29;60.90;100310.88;1722850;81;21036;-90
2021/06/12 07:44:34;;;;;;;2.52;1.00;;;;;;;24.37;60.43;100313.39;1698746;83;21463;-90
2021/06/12 07:47:03;;;;;;;1.52;0.82;;;;;;;24.43;58.85;100311.06;1723717;81;20998;-90
2021/06/12 07:49:30;;;;;;;1.55;0.93;;;;;;;24.40;59.16;100309.84;1720699;83;21006;-90
2021/06/12 07:51:56;;;;;;;1.90;0.90;;;;;;;24.44;60.57;100313.49;1719117;82;21034;-88
2021/06/12 07:54:24;;;;;;;0.75;0.70;;;;;;;24.56;58.57;100314.50;1719576;83;20975;-88
2021/06/12 07:56:51;;;;;;;1.77;0.50;;;;;;;24.59;58.05;100311.73;1721400;82;20990;-88
2021/06/12 07:59:18;;;;;;;1.15;0.70;;;;;;;24.61;57.70;100314.16;1720903;83;20994;-88
2021/06/12 08:01:44;;;;;;;1.30;0.85;;;;;;;24.67;56.81;100315.43;1720536;82;21010;-89
2021/06/12 08:04:11;;;;;;;0.70;0.60;;;;;;;24.74;55.98;100322.52;1720712;83;21422;-89
2021/06/12 08:06:38;;;;;;;0.72;0.60;;;;;;;24.72;55.70;100317.09;1720566;82;21472;-88
2021/06/12 08:09:04;;;;;;;1.20;0.70;;;;;;;24.72;56.75;100310.91;1724022;83;21037;-88
2021/06/12 08:11:31;;;;;;;1.32;0.62;;;;;;;24.85;57.19;100316.48;1723897;81;20998;-88
2021/06/12 08:13:58;;;;;;;0.75;0.75;;;;;;;25.09;57.86;100311.56;1724036;83;21543;-89
2021/06/12 08:16:25;;;;;;;0.50;0.50;;;;;;;25.33;55.43;100317.87;1699588;83;21002;-89
2021/06/12 08:18:52;;;;;;;0.68;0.62;;;;;;;25.45;54.66;100315.59;1724336;83;21093;-89
2021/06/12 08:21:18;;;;;;;0.68;0.50;;;;;;;25.55;55.12;100311.30;1724041;81;21029;-89
2021/06/12 08:23:45;;;;;;;1.22;0.50;;;;;;;25.58;55.03;100312.52;1724067;83;21046;-89
2021/06/12 08:26:12;;;;;;;2.62;0.68;;;;;;;25.67;55.69;100315.22;1721077;82;21062;-89
2021/06/12 08:28:38;;;;;;;1.20;0.72;;;;;;;25.86;54.26;100316.20;1720911;83;21045;-88
2021/06/12 08:31:06;;;;;;;0.50;0.50;;;;;;;26.02;53.36;100311.75;1720829;82;21396;-89
2021/06/12 08:33:33;;;;;;;0.40;0.40;;;;;;;25.94;51.48;100310.89;1722369;83;21487;-90
2021/06/12 08:35:59;;;;;;;0.80;0.60;;;;;;;25.68;51.08;100316.81;1723835;81;21109;-89
2021/06/12 08:38:26;;;;;;;0.93;0.70;;;;;;;25.59;52.42;100310.72;1716750;83;21002;-89
2021/06/12 08:40:53;;;;;;;0.70;0.70;;;;;;;25.72;51.24;100312.06;1665729;83;21055;-89
2021/06/12 08:43:27;;;;;;;1.12;0.50;;;;;;;25.85;51.26;100307.58;1691671;84;21029;-89
2021/06/12 08:45:55;;;;;;;0.88;0.60;;;;;;;25.86;50.35;100310.59;1691964;83;21427;-89
2021/06/12 08:48:23;;;;;;;1.45;1.15;;;;;;;25.83;50.16;100311.34;1691746;84;21097;-89
2021/06/12 08:50:50;;;;;;;0.50;0.50;;;;;;;25.77;51.33;100303.91;1696004;82;21530;-89
2021/06/12 08:53:17;;;;;;;1.37;0.68;;;;;;;25.85;52.28;100310.38;1704623;83;21021;-89
2021/06/12 08:55:44;;;;;;;0.72;0.60;;;;;;;25.85;51.40;100304.20;1723544;82;21002;-89
2021/06/12 08:58:10;;;;;;;1.90;0.70;;;;;;;25.82;52.30;100305.55;1720831;83;21427;-89
2021/06/12 09:00:38;;;;;;;1.25;0.62;;;;;;;25.97;51.76;100298.91;1694573;82;21575;-89
2021/06/12 09:03:27;;;;;;;1.62;1.00;;;;;;;26.14;50.58;100302.44;1710001;83;21014;-88
2021/06/12 09:05:58;;;;;;;0.95;0.72;;;;;;;26.02;51.20;100304.14;1697668;83;21176;-90
2021/06/12 09:08:31;;;;;;;;;;;;;;;25.95;51.70;100307.69;1694479;84;21432;-86
2021/06/12 09:11:08;;;;;;;1.42;1.00;;;;;;;25.97;51.90;100303.11;1690557;83;20187;-86
2021/06/12 09:13:54;;;;;;;0.60;0.60;;;;;;;26.11;51.91;100300.42;1691721;84;21057;-87
2021/06/12 09:16:26;;;;;;;1.60;1.10;;;;;;;26.20;52.38;100302.07;1691809;83;21005;-86
2021/06/12 09:18:54;;;;;;;1.17;0.80;;;;;;;26.24;50.46;100301.51;1692184;84;21064;-87
2021/06/12 09:21:34;;;;;;;2.40;0.90;;;;;;;26.24;50.01;100298.70;1691992;83;21033;-86
2021/06/12 09:24:02;;;;;;;2.58;0.60;;;;;;;26.23;49.30;100300.68;1691887;84;21021;-86
2021/06/12 09:26:51;;;;;;;1.05;0.93;;;;;;;26.28;50.04;100300.31;1692041;83;20871;-86
2021/06/12 09:29:20;;;;;;;0.72;0.60;;;;;;;26.35;49.33;100294.76;1691961;84;21018;-86
2021/06/12 09:31:52;;;;;;;0.80;0.62;;;;;;;26.32;50.40;100295.55;1691987;83;21029;-86
2021/06/12 09:34:22;;;;;;;2.00;0.93;;;;;;;26.19;50.32;100294.27;1692003;84;21053;-86
2021/06/12 09:36:48;;;;;;;0.80;0.70;;;;;;;26.18;51.42;100296.25;1692028;83;21419;-86
2021/06/12 09:39:23;;;;;;;1.07;0.75;;;;;;;26.32;50.22;100291.95;1671183;83;20998;-86
2021/06/12 09:41:54;;;;;;;1.32;0.80;;;;;;;26.54;49.74;100285.30;1721464;82;21002;-86
2021/06/12 09:44:35;;;;;;;;;;;;;;;26.66;48.24;100288.98;1723454;83;21061;-86
2021/06/12 09:47:22;;;;;;;1.15;1.05;;;;;;;26.53;48.38;100280.91;1720915;82;20156;-86
2021/06/12 09:49:48;;;;;;;0.90;0.80;;;;;;;26.28;47.25;100279.91;1681846;83;21517;-86
2021/06/12 09:52:17;;;;;;;0.57;0.57;;;;;;;26.17;47.66;100292.45;1691712;83;21073;-86
2021/06/12 09:54:53;;;;;;;0.62;0.50;;;;;;;26.15;46.12;100285.83;1691841;84;21058;-86
2021/06/12 09:57:21;;;;;;;1.22;0.60;;;;;;;26.12;47.10;100287.22;1693094;83;20994;-86
2021/06/12 09:59:51;;;;;;;0.40;0.33;;;;;;;26.16;45.95;100283.25;1695695;84;21483;-86
2021/06/12 10:02:39;;;;;;;0.88;0.88;;;;;;;26.16;44.41;100283.83;1694626;83;21016;-86
2021/06/12 10:05:07;;;;;;;0.72;0.37;;;;;;;26.20;45.04;100278.27;1694590;84;21451;-87
2021/06/12 10:07:34;;;;;;;1.12;0.82;;;;;;;26.18;45.31;100288.45;1694590;83;21010;-86
2021/06/12 10:10:07;;;;;;;0.40;0.40;;;;;;;26.22;44.79;100278.69;1694171;84;21392;-86
2021/06/12 10:12:33;;;;;;;0.93;0.53;;;;;;;26.18;44.77;100268.24;1694910;83;21068;-87
2021/06/12 10:15:00;;;;;;;1.40;0.75;;;;;;;26.22;46.58;100276.69;1695547;84;21025;-86
2021/06/12 10:17:27;;;;;;;1.30;0.82;;;;;;;26.26;44.93;100269.69;1669889;84;21052;-86
2021/06/12 10:19:55;;;;;;;1.60;0.90;;;;;;;26.28;44.41;100267.31;1695171;84;21057;-86
2021/06/12 10:22:22;;;;;;;0.53;0.53;;;;;;;26.30;44.91;100267.13;1694711;83;20965;-86
2021/06/12 10:24:49;;;;;;;0.80;0.72;;;;;;;26.38;43.74;100267.97;1694954;84;21070;-86
2021/06/12 10:27:17;;;;;;;0.93;0.70;;;;;;;26.45;46.87;100263.80;1695101;83;20994;-87
2021/06/12 10:29:46;;;;;;;0.70;0.53;;;;;;;26.44;45.68;100258.01;1692237;84;20973;-87
2021/06/12 10:32:13;;;;;;;0.57;0.57;;;;;;;26.44;47.40;100248.80;1691974;83;21053;-87
2021/06/12 10:34:40;;;;;;;0.70;0.60;;;;;;;26.55;45.64;100250.47;1692692;84;21054;-87
2021/06/12 10:37:08;;;;;;;0.57;0.50;;;;;;;26.71;45.87;100247.36;1692113;83;21077;-87
2021/06/12 10:39:38;;;;;;;0.80;0.80;;;;;;;26.91;44.78;100248.43;1692123;84;21100;-87
2021/06/12 10:42:17;;;;;;;1.70;1.10;;;;;;;27.09;45.57;100241.46;1692001;83;21472;-87
2021/06/12 10:44:49;;;;;;;1.72;0.72;;;;;;;27.18;44.86;100247.50;1692372;84;21017;-86
2021/06/12 10:47:43;;;;;;;1.22;0.82;;;;;;;27.20;43.02;100245.11;1692016;83;21468;-87
2021/06/12 10:50:36;;;;;;;0.98;0.80;;;;;;;27.27;41.98;100241.52;1692718;84;21021;-87
2021/06/12 10:53:20;;;;;;;0.55;0.55;;;;;;;27.23;43.84;100247.14;1692045;84;21423;-87
2021/06/12 10:55:51;;;;;;;0.88;0.62;;;;;;;27.31;44.15;100232.52;1692036;83;21045;-87
2021/06/12 10:58:35;;;;;;;0.98;0.70;;;;;;;27.26;43.01;100235.72;1691126;84;21013;-87
2021/06/12 11:01:18;;;;;;;0.98;0.82;;;;;;;27.18;43.17;100229.27;1691957;83;21432;-87
2021/06/12 11:04:14;;;;;;;1.35;0.90;;;;;;;27.19;42.58;100231.69;1692529;84;21495;-87
2021/06/12 11:09:34;;;;;;;1.75;0.88;;;;;;;27.22;43.88;100224.48;1691976;84;21408;-85
2021/06/12 11:12:19;;;;;;;1.40;0.70;;;;;;;27.30;42.46;100235.11;1691881;83;21412;-86
2021/06/12 11:15:03;;;;;;;1.02;0.70;;;;;;;27.40;41.99;100223.91;1691970;84;21369;-86
2021/06/12 11:17:29;;;;;;;0.90;0.62;;;;;;;27.48;40.40;100222.52;1691590;83;21030;-85
2021/06/12 11:20:02;;;;;;;0.62;0.57;;;;;;;27.55;39.01;100221.13;1692197;84;21081;-85
2021/06/12 11:22:57;;;;;;;0.75;0.75;;;;;;;27.62;39.71;100210.69;1692053;83;21010;-86
2021/06/12 11:25:29;;;;;;;1.35;0.65;;;;;;;27.66;42.61;100212.88;1691989;84;21066;-86
2021/06/12 11:28:23;;;;;;;0.50;0.50;;;;;;;27.95;40.42;100210.69;1691878;84;21073;-86
2021/06/12 11:30:51;;;;;;;1.32;1.05;;;;;;;28.15;40.83;100207.63;1692023;83;21065;-86
2021/06/12 11:33:21;;;;;;;1.72;0.90;;;;;;;28.45;38.57;100209.16;1691959;84;20994;-86